createdAt,value
2023-04-12T00:00:45.729Z,98537.00
2023-04-12T00:02:19.158Z,98542.00
2023-04-12T00:03:54.384Z,98537.00
2023-04-12T00:05:28.342Z,98524.00
2023-04-12T00:07:01.023Z,98513.00
2023-04-12T00:08:35.114Z,98511.00
2023-04-12T00:10:10.552Z,98505.00
2023-04-12T00:11:43.840Z,98498.00
2023-04-12T00:13:16.166Z,98501.00
2023-04-12T00:14:51.068Z,98488.00
2023-04-12T00:16:24.673Z,98485.00
2023-04-12T00:17:58.096Z,98484.00
2023-04-12T00:19:31.348Z,98484.00
2023-04-12T00:21:05.000Z,98487.00
2023-04-12T00:22:37.429Z,98479.00
2023-04-12T00:24:10.805Z,98477.00
2023-04-12T00:25:43.002Z,98474.00
2023-04-12T00:27:16.151Z,98484.00
2023-04-12T00:28:49.920Z,98471.00
2023-04-12T00:30:24.632Z,98479.00
2023-04-12T00:31:58.055Z,98475.00
2023-04-12T00:33:31.217Z,98477.00
2023-04-12T00:35:06.830Z,98477.00
2023-04-12T00:36:38.962Z,98462.00
2023-04-12T00:38:12.163Z,98465.00
2023-04-12T00:39:45.585Z,98456.00
2023-04-12T00:41:18.060Z,98462.00
2023-04-12T00:42:51.256Z,98463.00
2023-04-12T00:44:23.804Z,98458.00
2023-04-12T00:45:59.466Z,98457.00
2023-04-12T00:47:36.351Z,98455.00
2023-04-12T00:49:09.634Z,98451.00
2023-04-12T00:50:44.701Z,98451.00
2023-04-12T00:52:18.167Z,98450.00
2023-04-12T00:53:51.586Z,98437.00
2023-04-12T00:55:25.073Z,98448.00
2023-04-12T00:56:58.366Z,98440.00
2023-04-12T00:58:31.985Z,98433.00
2023-04-12T01:00:08.070Z,98443.00
2023-04-12T01:01:42.715Z,98448.00
2023-04-12T01:03:16.410Z,98441.00
2023-04-12T01:04:51.224Z,98437.00
2023-04-12T01:06:38.505Z,98440.00
2023-04-12T01:08:25.052Z,98432.00
2023-04-12T01:10:10.852Z,98424.00
2023-04-12T01:11:56.272Z,98430.00
2023-04-12T01:13:35.890Z,98431.00
2023-04-12T01:15:14.237Z,98430.00
2023-04-12T01:16:53.517Z,98426.00
2023-04-12T01:18:34.417Z,98418.00
2023-04-12T01:20:16.497Z,98410.00
2023-04-12T01:22:13.322Z,98409.00
2023-04-12T01:24:03.721Z,98406.00
2023-04-12T01:25:58.528Z,98408.00
2023-04-12T01:27:43.707Z,98388.00
2023-04-12T01:29:20.772Z,98381.00
2023-04-12T01:30:56.099Z,98384.00
2023-04-12T01:32:30.471Z,98381.00
2023-04-12T01:34:05.772Z,98379.00
2023-04-12T01:35:40.769Z,98381.00
2023-04-12T01:37:19.686Z,98367.00
2023-04-12T01:38:55.465Z,98370.00
2023-04-12T01:40:30.564Z,98362.00
2023-04-12T01:42:03.697Z,98355.00
2023-04-12T01:43:43.943Z,98354.00
2023-04-12T01:45:17.056Z,98359.00
2023-04-12T01:46:51.686Z,98365.00
2023-04-12T01:48:24.826Z,98364.00
2023-04-12T01:50:15.538Z,98355.00
2023-04-12T01:52:02.827Z,98350.00
2023-04-12T01:53:49.644Z,98339.00
2023-04-12T01:55:26.527Z,98341.00
2023-04-12T01:57:03.736Z,98332.00
2023-04-12T01:58:43.675Z,98327.00
2023-04-12T02:00:19.881Z,98334.00
2023-04-12T02:01:54.284Z,98337.00
2023-04-12T02:03:30.302Z,98326.00
2023-04-12T02:05:07.951Z,98322.00
2023-04-12T02:06:43.073Z,98311.00
2023-04-12T02:08:16.289Z,98314.00
2023-04-12T02:09:48.544Z,98300.00
2023-04-12T02:11:26.107Z,98291.00
2023-04-12T02:13:02.547Z,98287.00
2023-04-12T02:14:38.208Z,98291.00
2023-04-12T02:16:13.928Z,98287.00
2023-04-12T02:17:46.255Z,98298.00
2023-04-12T02:19:20.334Z,98285.00
2023-04-12T02:20:52.539Z,98284.00
2023-04-12T02:22:25.720Z,98272.00
2023-04-12T02:24:00.395Z,98278.00
2023-04-12T02:25:35.982Z,98255.00
2023-04-12T02:27:09.894Z,98255.00
2023-04-12T02:28:46.027Z,98259.00
2023-04-12T02:30:22.730Z,98251.00
2023-04-12T02:31:59.288Z,98239.00
2023-04-12T02:33:34.591Z,98241.00
2023-04-12T02:35:10.360Z,98231.00
2023-04-12T02:36:47.703Z,98225.00
2023-04-12T02:38:20.908Z,98228.00
2023-04-12T02:39:56.660Z,98220.00
2023-04-12T02:41:30.840Z,98223.00
2023-04-12T02:43:03.049Z,98200.00
2023-04-12T02:44:36.463Z,98215.00
2023-04-12T02:46:26.939Z,98220.00
2023-04-12T02:48:05.227Z,98220.00
2023-04-12T02:49:39.004Z,98222.00
2023-04-12T02:51:13.040Z,98211.00
2023-04-12T02:52:48.023Z,98211.00
2023-04-12T02:54:21.857Z,98205.00
2023-04-12T02:56:02.164Z,98201.00
2023-04-12T02:57:36.857Z,98207.00
2023-04-12T02:59:11.684Z,98203.00
2023-04-12T03:01:08.410Z,98192.00
2023-04-12T03:03:01.425Z,98183.00
2023-04-12T03:04:39.826Z,98175.00
2023-04-12T03:06:17.526Z,98169.00
2023-04-12T03:07:51.023Z,98165.00
2023-04-12T03:09:28.699Z,98146.00
2023-04-12T03:11:02.229Z,98150.00
2023-04-12T03:12:34.726Z,98150.00
2023-04-12T03:14:25.189Z,98132.00
2023-04-12T03:16:01.098Z,98135.00
2023-04-12T03:17:41.065Z,98132.00
2023-04-12T03:19:14.790Z,98143.00
2023-04-12T03:20:52.364Z,98133.00
2023-04-12T03:22:26.519Z,98130.00
2023-04-12T03:24:05.204Z,98122.00
2023-04-12T03:25:38.644Z,98117.00
2023-04-12T03:27:26.285Z,98124.00
2023-04-12T03:29:05.058Z,98117.00
2023-04-12T03:30:41.040Z,98103.00
2023-04-12T03:32:14.372Z,98103.00
2023-04-12T03:33:48.888Z,98101.00
2023-04-12T03:35:33.041Z,98101.00
2023-04-12T03:37:07.100Z,98085.00
2023-04-12T03:38:45.747Z,98075.00
2023-04-12T03:40:19.326Z,98072.00
2023-04-12T03:42:01.050Z,98070.00
2023-04-12T03:43:36.050Z,98060.00
2023-04-12T03:45:12.845Z,98058.00
2023-04-12T03:46:49.686Z,98052.00
2023-04-12T03:48:23.925Z,98044.00
2023-04-12T03:50:11.082Z,98049.00
2023-04-12T03:51:53.654Z,98039.00
2023-04-12T03:53:27.001Z,98036.00
2023-04-12T03:55:01.231Z,98027.00
2023-04-12T03:56:33.551Z,98017.00
2023-04-12T03:58:13.411Z,98030.00
2023-04-12T03:59:49.587Z,98022.00
2023-04-12T04:01:27.406Z,98021.00
2023-04-12T04:03:04.643Z,98029.00
2023-04-12T04:04:44.545Z,98028.00
2023-04-12T04:06:20.563Z,98016.00
2023-04-12T04:07:54.156Z,98017.00
2023-04-12T04:09:27.959Z,98015.00
2023-04-12T04:11:01.826Z,98007.00
2023-04-12T04:12:42.656Z,97991.00
2023-04-12T04:14:18.789Z,97987.00
2023-04-12T04:15:59.449Z,97989.00
2023-04-12T04:17:33.948Z,97986.00
2023-04-12T04:19:07.679Z,97984.00
2023-04-12T04:20:39.837Z,97983.00
2023-04-12T04:22:13.781Z,97976.00
2023-04-12T04:23:49.059Z,97972.00
2023-04-12T04:25:25.147Z,97970.00
2023-04-12T04:27:00.118Z,97986.00
2023-04-12T04:28:35.124Z,97970.00
2023-04-12T04:30:10.393Z,97966.00
2023-04-12T04:31:48.839Z,97959.00
2023-04-12T04:33:22.111Z,97958.00
2023-04-12T04:34:59.714Z,97940.00
2023-04-12T04:36:39.217Z,97942.00
2023-04-12T04:38:13.200Z,97942.00
2023-04-12T04:39:47.746Z,97939.00
2023-04-12T04:41:22.610Z,97939.00
2023-04-12T04:43:01.164Z,97927.00
2023-04-12T04:44:38.127Z,97935.00
2023-04-12T04:46:13.892Z,97917.00
2023-04-12T04:47:46.425Z,97907.00
2023-04-12T04:49:19.713Z,97914.00
2023-04-12T04:50:53.194Z,97921.00
2023-04-12T04:52:28.154Z,97929.00
2023-04-12T04:54:06.728Z,97926.00
2023-04-12T04:55:41.521Z,97926.00
2023-04-12T04:57:15.003Z,97914.00
2023-04-12T04:58:48.204Z,97920.00
2023-04-12T05:00:21.867Z,97917.00
2023-04-12T05:02:00.851Z,97910.00
2023-04-12T05:03:34.936Z,97913.00
2023-04-12T05:05:09.642Z,97915.00
2023-04-12T05:06:43.480Z,97903.00
2023-04-12T05:08:18.798Z,97897.00
2023-04-12T05:09:55.139Z,97895.00
2023-04-12T05:11:28.765Z,97884.00
2023-04-12T05:13:02.047Z,97896.00
2023-04-12T05:14:46.735Z,97893.00
2023-04-12T05:16:21.063Z,97892.00
2023-04-12T05:17:54.286Z,97895.00
2023-04-12T05:19:27.564Z,97896.00
2023-04-12T05:21:03.826Z,97882.00
2023-04-12T05:22:37.457Z,97881.00
2023-04-12T05:24:10.638Z,97878.00
2023-04-12T05:25:48.262Z,97871.00
2023-04-12T05:27:22.859Z,97879.00
2023-04-12T05:28:57.586Z,97870.00
2023-04-12T05:30:31.434Z,97867.00
2023-04-12T05:32:05.138Z,97864.00
2023-04-12T05:33:38.289Z,97869.00
2023-04-12T05:35:11.598Z,97859.00
2023-04-12T05:36:46.654Z,97861.00
2023-04-12T05:38:20.468Z,97869.00
2023-04-12T05:39:58.001Z,97853.00
2023-04-12T05:41:31.286Z,97858.00
2023-04-12T05:43:05.991Z,97853.00
2023-04-12T05:44:40.829Z,97855.00
2023-04-12T05:46:18.537Z,97860.00
2023-04-12T05:47:56.179Z,97857.00
2023-04-12T05:49:31.174Z,97847.00
2023-04-12T05:51:06.855Z,97845.00
2023-04-12T05:52:40.584Z,97852.00
2023-04-12T05:54:15.766Z,97848.00
2023-04-12T05:55:48.920Z,97850.00
2023-04-12T05:57:24.194Z,97851.00
2023-04-12T05:58:58.940Z,97850.00
2023-04-12T06:00:32.369Z,97844.00
2023-04-12T06:02:05.815Z,97835.00
2023-04-12T06:03:41.566Z,97836.00
2023-04-12T06:05:17.681Z,97829.00
2023-04-12T06:06:51.218Z,97828.00
2023-04-12T06:08:24.468Z,97834.00
2023-04-12T06:09:57.736Z,97828.00
2023-04-12T06:11:31.684Z,97830.00
2023-04-12T06:13:05.240Z,97819.00
2023-04-12T06:14:40.762Z,97812.00
2023-04-12T06:16:15.133Z,97807.00
2023-04-12T06:17:50.802Z,97813.00
2023-04-12T06:19:24.812Z,97805.00
2023-04-12T06:20:58.852Z,97799.00
2023-04-12T06:22:33.413Z,97802.00
2023-04-12T06:24:07.937Z,97801.00
2023-04-12T06:25:41.574Z,97800.00
2023-04-12T06:27:15.533Z,97801.00
2023-04-12T06:28:49.162Z,97795.00
2023-04-12T06:30:24.096Z,97785.00
2023-04-12T06:32:00.740Z,97782.00
2023-04-12T06:33:34.097Z,97781.00
2023-04-12T06:35:08.914Z,97785.00
2023-04-12T06:36:43.421Z,97789.00
2023-04-12T06:38:16.812Z,97786.00
2023-04-12T06:39:49.998Z,97787.00
2023-04-12T06:41:23.349Z,97784.00
2023-04-12T06:43:06.057Z,97782.00
2023-04-12T06:44:39.570Z,97774.00
2023-04-12T06:46:15.517Z,97780.00
2023-04-12T06:47:48.743Z,97762.00
2023-04-12T06:49:22.180Z,97771.00
2023-04-12T06:50:55.335Z,97757.00
2023-04-12T06:52:28.536Z,97758.00
2023-04-12T06:54:01.764Z,97753.00
2023-04-12T06:55:35.591Z,97750.00
2023-04-12T06:57:11.322Z,97747.00
2023-04-12T06:58:44.706Z,97740.00
2023-04-12T07:00:18.630Z,97742.00
2023-04-12T07:01:53.208Z,97738.00
2023-04-12T07:03:28.285Z,97737.00
2023-04-12T07:05:01.581Z,97730.00
2023-04-12T07:06:34.921Z,97723.00
2023-04-12T07:08:10.481Z,97721.00
2023-04-12T07:09:44.025Z,97722.00
2023-04-12T07:11:21.632Z,97720.00
2023-04-12T07:12:56.663Z,97714.00
2023-04-12T07:14:29.829Z,97709.00
2023-04-12T07:16:03.374Z,97720.00
2023-04-12T07:17:38.043Z,97716.00
2023-04-12T07:19:11.384Z,97699.00
2023-04-12T07:20:44.769Z,97702.00
2023-04-12T07:22:17.931Z,97696.00
2023-04-12T07:23:52.061Z,97698.00
2023-04-12T07:25:25.224Z,97695.00
2023-04-12T07:26:58.408Z,97698.00
2023-04-12T07:28:31.698Z,97693.00
2023-04-12T07:30:05.878Z,97684.00
2023-04-12T07:31:39.200Z,97688.00
2023-04-12T07:33:19.675Z,97684.00
2023-04-12T07:34:53.693Z,97683.00
2023-04-12T07:36:27.358Z,97689.00
2023-04-12T07:38:00.983Z,97676.00
2023-04-12T07:39:36.017Z,97674.00
2023-04-12T07:41:09.556Z,97674.00
2023-04-12T07:42:42.722Z,97665.00
2023-04-12T07:44:15.890Z,97664.00
2023-04-12T07:45:49.317Z,97663.00
2023-04-12T07:47:21.629Z,97667.00
2023-04-12T07:48:56.228Z,97663.00
2023-04-12T07:50:29.723Z,97659.00
2023-04-12T07:52:03.038Z,97654.00
2023-04-12T07:53:36.312Z,97643.00
2023-04-12T07:55:10.067Z,97653.00
2023-04-12T07:56:58.140Z,97644.00
2023-04-12T07:58:31.864Z,97647.00
2023-04-12T08:00:07.053Z,97645.00
2023-04-12T08:01:46.282Z,97640.00
2023-04-12T08:03:20.494Z,97648.00
2023-04-12T08:04:55.566Z,97643.00
2023-04-12T08:06:30.660Z,97645.00
2023-04-12T08:08:06.432Z,97636.00
2023-04-12T08:09:39.620Z,97630.00
2023-04-12T08:11:12.742Z,97632.00
2023-04-12T08:12:45.970Z,97618.00
2023-04-12T08:14:19.121Z,97624.00
2023-04-12T08:15:52.724Z,97625.00
2023-04-12T08:17:28.539Z,97620.00
2023-04-12T08:19:01.814Z,97620.00
2023-04-12T08:20:36.433Z,97617.00
2023-04-12T08:22:10.793Z,97619.00
2023-04-12T08:23:45.238Z,97627.00
2023-04-12T08:25:18.624Z,97626.00
2023-04-12T08:26:52.261Z,97627.00
2023-04-12T08:28:28.443Z,97634.00
2023-04-12T08:30:01.724Z,97629.00
2023-04-12T08:31:35.486Z,97642.00
2023-04-12T08:33:08.692Z,97627.00
2023-04-12T08:34:43.692Z,97623.00
2023-04-12T08:36:20.005Z,97632.00
2023-04-12T08:37:53.513Z,97628.00
2023-04-12T08:39:26.650Z,97640.00
2023-04-12T08:41:03.306Z,97624.00
2023-04-12T08:42:37.916Z,97631.00
2023-04-12T08:44:30.526Z,97623.00
2023-04-12T08:46:04.287Z,97627.00
2023-04-12T08:47:40.662Z,97620.00
2023-04-12T08:49:14.128Z,97623.00
2023-04-12T08:50:50.564Z,97622.00
2023-04-12T08:52:25.161Z,97622.00
2023-04-12T08:53:58.558Z,97619.00
2023-04-12T08:55:32.020Z,97619.00
2023-04-12T08:57:08.443Z,97607.00
2023-04-12T08:58:45.928Z,97605.00
2023-04-12T09:00:21.451Z,97603.00
2023-04-12T09:01:56.550Z,97598.00
2023-04-12T09:03:33.548Z,97592.00
2023-04-12T09:05:09.580Z,97593.00
2023-04-12T09:06:43.017Z,97592.00
2023-04-12T09:08:18.308Z,97582.00
2023-04-12T09:09:52.077Z,97588.00
2023-04-12T09:11:27.741Z,97581.00
2023-04-12T09:13:01.367Z,97582.00
2023-04-12T09:14:34.550Z,97590.00
2023-04-12T09:16:08.019Z,97588.00
2023-04-12T09:17:43.127Z,97589.00
2023-04-12T09:19:16.808Z,97591.00
2023-04-12T09:20:49.964Z,97585.00
2023-04-12T09:22:36.048Z,97583.00
2023-04-12T09:24:14.566Z,97583.00
2023-04-12T09:25:51.726Z,97579.00
2023-04-12T09:27:25.307Z,97579.00
2023-04-12T09:28:58.584Z,97572.00
2023-04-12T09:30:41.693Z,97572.00
2023-04-12T09:32:14.826Z,97565.00
2023-04-12T09:33:48.319Z,97574.00
2023-04-12T09:35:35.439Z,97577.00
2023-04-12T09:37:16.030Z,97565.00
2023-04-12T09:39:02.388Z,97575.00
2023-04-12T09:40:38.021Z,97564.00
2023-04-12T09:42:29.864Z,97566.00
2023-04-12T09:44:06.134Z,97572.00
2023-04-12T09:45:40.407Z,97574.00
2023-04-12T09:47:14.309Z,97566.00
2023-04-12T09:48:52.267Z,97571.00
2023-04-12T09:50:28.410Z,97568.00
2023-04-12T09:52:02.072Z,97570.00
2023-04-12T09:53:37.304Z,97572.00
2023-04-12T09:55:12.672Z,97570.00
2023-04-12T09:56:48.995Z,97563.00
2023-04-12T09:58:23.954Z,97559.00
2023-04-12T10:00:00.871Z,97555.00
2023-04-12T10:01:37.381Z,97549.00
2023-04-12T10:03:13.464Z,97549.00
2023-04-12T10:04:49.390Z,97554.00
2023-04-12T10:06:23.619Z,97543.00
2023-04-12T10:07:58.173Z,97546.00
2023-04-12T10:09:35.513Z,97552.00
2023-04-12T10:11:09.133Z,97558.00
2023-04-12T10:12:47.172Z,97554.00
2023-04-12T10:14:22.450Z,97555.00
2023-04-12T10:15:56.708Z,97561.00
2023-04-12T10:17:30.123Z,97555.00
2023-04-12T10:19:04.983Z,97566.00
2023-04-12T10:20:41.691Z,97556.00
2023-04-12T10:22:19.309Z,97542.00
2023-04-12T10:23:52.548Z,97536.00
2023-04-12T10:25:30.675Z,97540.00
2023-04-12T10:27:04.680Z,97542.00
2023-04-12T10:28:39.269Z,97539.00
2023-04-12T10:30:27.113Z,97534.00
2023-04-12T10:32:19.827Z,97533.00
2023-04-12T10:33:56.118Z,97533.00
2023-04-12T10:35:30.355Z,97532.00
2023-04-12T10:37:04.287Z,97521.00
2023-04-12T10:38:48.444Z,97524.00
2023-04-12T10:40:24.422Z,97521.00
2023-04-12T10:42:20.690Z,97511.00
2023-04-12T10:44:27.319Z,97530.00
2023-04-12T10:46:05.139Z,97520.00
2023-04-12T10:48:01.239Z,97521.00
2023-04-12T10:49:34.792Z,97513.00
2023-04-12T10:51:23.006Z,97517.00
2023-04-12T10:53:27.113Z,97505.00
2023-04-12T10:55:29.992Z,97518.00
2023-04-12T10:57:05.776Z,97513.00
2023-04-12T10:59:01.091Z,97497.00
2023-04-12T11:01:12.287Z,97512.00
2023-04-12T11:03:11.555Z,97513.00
2023-04-12T11:05:09.148Z,97510.00
2023-04-12T11:06:59.817Z,97515.00
2023-04-12T11:08:45.757Z,97524.00
2023-04-12T11:10:36.575Z,97519.00
2023-04-12T11:12:15.022Z,97528.00
2023-04-12T11:13:48.325Z,97523.00
2023-04-12T11:15:27.954Z,97523.00
2023-04-12T11:17:26.276Z,97525.00
2023-04-12T11:19:00.475Z,97526.00
2023-04-12T11:20:34.354Z,97534.00
2023-04-12T11:22:10.684Z,97532.00
2023-04-12T11:23:45.543Z,97529.00
2023-04-12T11:25:19.117Z,97522.00
2023-04-12T11:26:53.824Z,97525.00
2023-04-12T11:28:30.468Z,97526.00
2023-04-12T11:30:05.271Z,97514.00
2023-04-12T11:31:45.649Z,97509.00
2023-04-12T11:33:36.802Z,97512.00
2023-04-12T11:35:10.638Z,97497.00
2023-04-12T11:36:46.679Z,97513.00
2023-04-12T11:38:20.077Z,97501.00
2023-04-12T11:39:56.785Z,97512.00
2023-04-12T11:41:29.925Z,97514.00
2023-04-12T11:43:03.155Z,97516.00
2023-04-12T11:44:52.361Z,97512.00
2023-04-12T11:46:35.362Z,97513.00
2023-04-12T11:48:10.870Z,97517.00
2023-04-12T11:49:50.654Z,97514.00
2023-04-12T11:51:27.387Z,97530.00
2023-04-12T11:53:12.871Z,97526.00
2023-04-12T11:54:47.980Z,97526.00
2023-04-12T11:56:21.267Z,97522.00
2023-04-12T11:57:55.793Z,97527.00
2023-04-12T11:59:33.977Z,97522.00
2023-04-12T12:01:07.497Z,97527.00
2023-04-12T12:02:52.347Z,97529.00
2023-04-12T12:04:36.588Z,97541.00
2023-04-12T12:06:11.102Z,97544.00
2023-04-12T12:07:44.564Z,97538.00
2023-04-12T12:09:18.068Z,97537.00
2023-04-12T12:11:06.358Z,97545.00
2023-04-12T12:12:44.827Z,97535.00
2023-04-12T12:14:20.331Z,97541.00
2023-04-12T12:15:54.162Z,97540.00
2023-04-12T12:17:28.995Z,97534.00
2023-04-12T12:19:05.485Z,97533.00
2023-04-12T12:20:48.381Z,97532.00
2023-04-12T12:22:23.370Z,97530.00
2023-04-12T12:23:58.592Z,97541.00
2023-04-12T12:25:32.125Z,97532.00
2023-04-12T12:27:06.032Z,97524.00
2023-04-12T12:28:40.303Z,97528.00
2023-04-12T12:30:15.130Z,97525.00
2023-04-12T12:31:49.162Z,97524.00
2023-04-12T12:33:29.087Z,97531.00
2023-04-12T12:35:14.407Z,97549.00
2023-04-12T12:36:56.646Z,97546.00
2023-04-12T12:38:37.789Z,97538.00
2023-04-12T12:40:14.466Z,97535.00
2023-04-12T12:41:56.026Z,97541.00
2023-04-12T12:43:29.167Z,97533.00
2023-04-12T12:45:04.311Z,97534.00
2023-04-12T12:46:52.019Z,97534.00
2023-04-12T12:48:28.120Z,97533.00
2023-04-12T12:50:01.373Z,97540.00
2023-04-12T12:51:34.588Z,97537.00
2023-04-12T12:53:10.190Z,97542.00
2023-04-12T12:54:43.365Z,97533.00
2023-04-12T12:56:17.314Z,97537.00
2023-04-12T12:58:07.513Z,97528.00
2023-04-12T12:59:41.392Z,97531.00
2023-04-12T13:01:14.567Z,97533.00
2023-04-12T13:02:48.566Z,97525.00
2023-04-12T13:04:21.884Z,97530.00
2023-04-12T13:05:55.692Z,97530.00
2023-04-12T13:07:28.970Z,97523.00
2023-04-12T13:09:03.467Z,97529.00
2023-04-12T13:10:36.620Z,97528.00
2023-04-12T13:12:09.975Z,97530.00
2023-04-12T13:13:43.211Z,97528.00
2023-04-12T13:16:52.721Z,97529.00
2023-04-12T13:18:25.953Z,97533.00
2023-04-12T13:19:59.798Z,97535.00
2023-04-12T13:21:33.091Z,97528.00
2023-04-12T13:23:06.291Z,97520.00
2023-04-12T13:24:41.073Z,97526.00
2023-04-12T13:26:14.124Z,97522.00
2023-04-12T13:27:48.717Z,97510.00
2023-04-12T13:29:21.908Z,97510.00
2023-04-12T13:30:55.029Z,97512.00
2023-04-12T13:32:28.303Z,97510.00
2023-04-12T13:34:01.456Z,97504.00
2023-04-12T13:35:34.614Z,97502.00
2023-04-12T13:37:08.597Z,97511.00
2023-04-12T13:38:41.791Z,97502.00
2023-04-12T13:40:16.290Z,97513.00
2023-04-12T13:41:49.500Z,97503.00
2023-04-12T13:43:22.646Z,97501.00
2023-04-12T13:44:56.876Z,97510.00
2023-04-12T13:46:30.345Z,97501.00
2023-04-12T13:48:03.669Z,97499.00
2023-04-12T13:49:36.859Z,97492.00
2023-04-12T13:51:10.927Z,97510.00
2023-04-12T13:52:44.052Z,97514.00
2023-04-12T13:54:17.394Z,97526.00
2023-04-12T13:55:51.837Z,97517.00
2023-04-12T13:57:25.181Z,97532.00
2023-04-12T13:58:59.160Z,97531.00
2023-04-12T14:00:32.678Z,97534.00
2023-04-12T14:02:06.022Z,97535.00
2023-04-12T14:03:39.681Z,97533.00
2023-04-12T14:05:12.838Z,97544.00
2023-04-12T14:06:46.291Z,97536.00
2023-04-12T14:08:19.413Z,97538.00
2023-04-12T14:09:53.576Z,97546.00
2023-04-12T14:11:28.096Z,97533.00
2023-04-12T14:13:01.654Z,97544.00
2023-04-12T14:14:34.859Z,97538.00
2023-04-12T14:16:09.263Z,97544.00
2023-04-12T14:17:42.555Z,97538.00
2023-04-12T14:19:16.695Z,97541.00
2023-04-12T14:20:52.549Z,97539.00
2023-04-12T14:22:26.017Z,97537.00
2023-04-12T14:23:59.300Z,97539.00
2023-04-12T14:25:32.541Z,97543.00
2023-04-12T14:27:07.626Z,97533.00
2023-04-12T14:28:40.828Z,97532.00
2023-04-12T14:30:15.900Z,97527.00
2023-04-12T14:31:50.792Z,97532.00
2023-04-12T14:33:24.033Z,97526.00
2023-04-12T14:34:57.470Z,97532.00
2023-04-12T14:36:30.926Z,97525.00
2023-04-12T14:38:05.991Z,97533.00
2023-04-12T14:39:39.132Z,97520.00
2023-04-12T14:41:13.914Z,97510.00
2023-04-12T14:42:48.617Z,97502.00
2023-04-12T14:44:23.836Z,97517.00
2023-04-12T14:45:58.768Z,97502.00
2023-04-12T14:47:32.096Z,97503.00
2023-04-12T14:49:05.530Z,97496.00
2023-04-12T14:50:39.096Z,97509.00
2023-04-12T14:52:12.591Z,97503.00
2023-04-12T14:53:46.307Z,97501.00
2023-04-12T14:55:20.636Z,97515.00
2023-04-12T14:56:56.143Z,97516.00
2023-04-12T14:58:31.302Z,97510.00
2023-04-12T15:00:12.310Z,97503.00
2023-04-12T15:01:45.535Z,97516.00
2023-04-12T15:03:19.308Z,97518.00
2023-04-12T15:04:52.787Z,97528.00
2023-04-12T15:06:27.147Z,97528.00
2023-04-12T15:08:00.777Z,97551.00
2023-04-12T15:09:34.070Z,97564.00
2023-04-12T15:11:09.672Z,97582.00
2023-04-12T15:12:42.796Z,97595.00
2023-04-12T15:14:19.826Z,97598.00
2023-04-12T15:15:53.106Z,97595.00
2023-04-12T15:17:26.427Z,97605.00
2023-04-12T15:19:02.762Z,97599.00
2023-04-12T15:20:39.643Z,97621.00
2023-04-12T15:22:13.221Z,97616.00
2023-04-12T15:23:47.172Z,97625.00
2023-04-12T15:25:20.870Z,97618.00
2023-04-12T15:26:54.485Z,97610.00
2023-04-12T15:28:27.860Z,97613.00
2023-04-12T15:30:03.414Z,97600.00
2023-04-12T15:31:36.607Z,97604.00
2023-04-12T15:33:11.526Z,97605.00
2023-04-12T15:34:44.912Z,97609.00
2023-04-12T15:36:18.938Z,97601.00
2023-04-12T15:37:52.415Z,97608.00
2023-04-12T15:39:26.808Z,97596.00
2023-04-12T15:41:02.610Z,97596.00
2023-04-12T15:42:36.800Z,97600.00
2023-04-12T15:44:13.510Z,97594.00
2023-04-12T15:45:48.354Z,97609.00
2023-04-12T15:47:21.436Z,97604.00
2023-04-12T15:48:54.586Z,97603.00
2023-04-12T15:50:28.045Z,97609.00
2023-04-12T15:52:01.333Z,97605.00
2023-04-12T15:53:34.642Z,97602.00
2023-04-12T15:55:11.460Z,97603.00
2023-04-12T15:56:45.327Z,97613.00
2023-04-12T15:58:18.421Z,97606.00
2023-04-12T15:59:52.721Z,97603.00
2023-04-12T16:01:27.764Z,97623.00
2023-04-12T16:03:01.058Z,97621.00
2023-04-12T16:04:34.931Z,97625.00
2023-04-12T16:06:08.850Z,97627.00
2023-04-12T16:07:42.006Z,97634.00
2023-04-12T16:09:16.661Z,97640.00
2023-04-12T16:10:50.373Z,97647.00
2023-04-12T16:12:23.977Z,97646.00
2023-04-12T16:13:57.090Z,97665.00
2023-04-12T16:15:30.323Z,97664.00
2023-04-12T16:17:05.066Z,97665.00
2023-04-12T16:18:38.355Z,97657.00
2023-04-12T16:20:16.719Z,97645.00
2023-04-12T16:21:50.470Z,97648.00
2023-04-12T16:23:23.576Z,97653.00
2023-04-12T16:24:57.870Z,97663.00
2023-04-12T16:26:30.993Z,97661.00
2023-04-12T16:28:05.371Z,97671.00
2023-04-12T16:29:38.686Z,97664.00
2023-04-12T16:31:15.362Z,97663.00
2023-04-12T16:32:51.983Z,97680.00
2023-04-12T16:34:25.292Z,97687.00
2023-04-12T16:35:58.544Z,97679.00
2023-04-12T16:37:32.571Z,97688.00
2023-04-12T16:39:06.266Z,97693.00
2023-04-12T16:40:39.748Z,97687.00
2023-04-12T16:42:13.470Z,97684.00
2023-04-12T16:43:46.718Z,97677.00
2023-04-12T16:45:20.770Z,97693.00
2023-04-12T16:46:54.064Z,97696.00
2023-04-12T16:48:28.837Z,97691.00
2023-04-12T16:50:02.346Z,97696.00
2023-04-12T16:51:36.746Z,97693.00
2023-04-12T16:53:10.187Z,97696.00
2023-04-12T16:54:44.598Z,97696.00
2023-04-12T16:56:18.356Z,97709.00
2023-04-12T16:57:53.656Z,97703.00
2023-04-12T16:59:27.355Z,97699.00
2023-04-12T17:01:01.056Z,97709.00
2023-04-12T17:02:34.784Z,97700.00
2023-04-12T17:04:09.530Z,97692.00
2023-04-12T17:05:42.836Z,97693.00
2023-04-12T17:07:16.481Z,97692.00
2023-04-12T17:08:50.044Z,97689.00
2023-04-12T17:10:25.746Z,97706.00
2023-04-12T17:11:59.038Z,97711.00
2023-04-12T17:13:32.216Z,97711.00
2023-04-12T17:15:07.106Z,97703.00
2023-04-12T17:16:40.680Z,97703.00
2023-04-12T17:18:14.340Z,97705.00
2023-04-12T17:19:49.032Z,97705.00
2023-04-12T17:21:22.330Z,97720.00
2023-04-12T17:22:57.483Z,97712.00
2023-04-12T17:24:30.829Z,97703.00
2023-04-12T17:26:04.260Z,97698.00
2023-04-12T17:27:38.256Z,97693.00
2023-04-12T17:29:11.532Z,97676.00
2023-04-12T17:30:45.090Z,97696.00
2023-04-12T17:32:18.834Z,97699.00
2023-04-12T17:33:52.192Z,97697.00
2023-04-12T17:35:26.816Z,97715.00
2023-04-12T17:37:00.400Z,97706.00
2023-04-12T17:38:33.644Z,97700.00
2023-04-12T17:40:10.464Z,97695.00
2023-04-12T17:41:44.295Z,97691.00
2023-04-12T17:43:17.716Z,97697.00
2023-04-12T17:44:51.029Z,97701.00
2023-04-12T17:46:25.024Z,97709.00
2023-04-12T17:47:58.500Z,97702.00
2023-04-12T17:49:32.282Z,97694.00
2023-04-12T17:51:09.932Z,97709.00
2023-04-12T17:52:43.944Z,97698.00
2023-04-12T17:54:17.709Z,97698.00
2023-04-12T17:55:51.710Z,97709.00
2023-04-12T17:57:25.227Z,97704.00
2023-04-12T17:58:58.719Z,97702.00
2023-04-12T18:00:32.181Z,97708.00
2023-04-12T18:02:05.941Z,97693.00
2023-04-12T18:03:39.513Z,97698.00
2023-04-12T18:05:13.502Z,97696.00
2023-04-12T18:06:48.583Z,97695.00
2023-04-12T18:08:24.834Z,97699.00
2023-04-12T18:09:58.115Z,97695.00
2023-04-12T18:11:31.725Z,97695.00
2023-04-12T18:13:05.561Z,97700.00
2023-04-12T18:14:40.355Z,97699.00
2023-04-12T18:16:13.709Z,97706.00
2023-04-12T18:17:47.029Z,97711.00
2023-04-12T18:19:20.407Z,97714.00
2023-04-12T18:20:53.776Z,97712.00
2023-04-12T18:22:28.452Z,97726.00
2023-04-12T18:24:02.824Z,97729.00
2023-04-12T18:25:36.075Z,97723.00
2023-04-12T18:27:09.506Z,97714.00
2023-04-12T18:28:42.782Z,97729.00
2023-04-12T18:30:17.248Z,97731.00
2023-04-12T18:31:50.586Z,97723.00
2023-04-12T18:33:24.210Z,97721.00
2023-04-12T18:34:57.539Z,97717.00
2023-04-12T18:36:31.529Z,97728.00
2023-04-12T18:38:06.177Z,97725.00
2023-04-12T18:39:39.543Z,97722.00
2023-04-12T18:41:14.984Z,97723.00
2023-04-12T18:42:48.403Z,97727.00
2023-04-12T18:44:21.705Z,97730.00
2023-04-12T18:45:55.829Z,97741.00
2023-04-12T18:47:29.168Z,97732.00